createdAt,value
2023-12-08T00:00:51.527Z,96407.38
2023-12-08T00:03:18.213Z,96417.81
2023-12-08T00:05:45.104Z,96414.59
2023-12-08T00:08:11.853Z,96417.91
2023-12-08T00:10:38.567Z,96418.94
2023-12-08T00:13:06.640Z,96421.34
2023-12-08T00:15:33.537Z,96426.22
2023-12-08T00:18:00.312Z,96417.22
2023-12-08T00:20:27.203Z,96410.00
2023-12-08T00:22:53.978Z,96408.31
2023-12-08T00:25:20.764Z,96397.00
2023-12-08T00:27:47.445Z,96412.44
2023-12-08T00:30:15.794Z,96411.63
2023-12-08T00:32:42.701Z,96412.09
2023-12-08T00:35:09.560Z,96415.69
2023-12-08T00:37:36.346Z,96410.16
2023-12-08T00:40:03.431Z,96387.88
2023-12-08T00:42:30.240Z,96370.78
2023-12-08T00:44:57.129Z,96371.97
2023-12-08T00:47:25.522Z,96365.53
2023-12-08T00:49:52.405Z,96368.75
2023-12-08T00:52:19.141Z,96367.94
2023-12-08T00:54:45.837Z,96363.56
2023-12-08T00:57:12.642Z,96358.38
2023-12-08T00:59:39.361Z,96362.56
2023-12-08T01:02:06.105Z,96365.56
2023-12-08T01:04:34.183Z,96359.81
2023-12-08T01:07:00.870Z,96361.66
2023-12-08T01:09:27.623Z,96360.97
2023-12-08T01:11:54.389Z,96360.31
2023-12-08T01:14:21.178Z,96373.44
2023-12-08T01:16:47.901Z,96351.91
2023-12-08T01:19:15.294Z,96364.69
2023-12-08T01:21:43.345Z,96364.25
2023-12-08T01:24:10.180Z,96371.75
2023-12-08T01:26:36.962Z,96368.44
2023-12-08T01:29:03.761Z,96375.56
2023-12-08T01:31:30.465Z,96372.94
2023-12-08T01:33:57.571Z,96369.22
2023-12-08T01:36:41.505Z,96371.31
2023-12-08T01:39:12.404Z,96372.34
2023-12-08T01:41:39.406Z,96374.28
2023-12-08T01:44:06.310Z,96374.19
2023-12-08T01:46:33.087Z,96376.59
2023-12-08T01:49:00.056Z,96383.66
2023-12-08T01:51:26.900Z,96382.50
2023-12-08T01:53:53.653Z,96381.59
2023-12-08T01:56:21.681Z,96381.13
2023-12-08T01:58:48.433Z,96392.69
2023-12-08T02:01:15.402Z,96394.75
2023-12-08T02:03:42.381Z,96401.59
2023-12-08T02:06:09.320Z,96399.50
2023-12-08T02:08:36.237Z,96404.38
2023-12-08T02:11:03.041Z,96391.09
2023-12-08T02:13:31.136Z,96397.56
2023-12-08T02:16:00.070Z,96390.66
2023-12-08T02:18:27.202Z,96392.84
2023-12-08T02:20:54.068Z,96392.84
2023-12-08T02:23:20.885Z,96398.50
2023-12-08T02:25:48.914Z,96401.84
2023-12-08T02:28:15.727Z,96406.25
2023-12-08T02:30:42.436Z,96404.88
2023-12-08T02:33:09.847Z,96408.78
2023-12-08T02:35:37.086Z,96399.22
2023-12-08T02:38:03.848Z,96416.66
2023-12-08T02:40:30.730Z,96407.75
2023-12-08T02:42:58.956Z,96406.25
2023-12-08T02:45:25.684Z,96418.97
2023-12-08T02:47:52.528Z,96427.03
2023-12-08T02:50:19.286Z,96420.94
2023-12-08T02:52:45.997Z,96419.22
2023-12-08T02:55:12.858Z,96431.22
2023-12-08T02:57:39.574Z,96428.47
2023-12-08T03:00:09.056Z,96427.53
2023-12-08T03:02:35.904Z,96431.00
2023-12-08T03:05:02.647Z,96434.81
2023-12-08T03:07:29.482Z,96426.03
2023-12-08T03:09:56.276Z,96422.56
2023-12-08T03:12:23.076Z,96426.03
2023-12-08T03:14:49.788Z,96421.63
2023-12-08T03:17:17.944Z,96425.00
2023-12-08T03:19:44.669Z,96424.53
2023-12-08T03:22:11.360Z,96424.56
2023-12-08T03:24:38.039Z,96425.69
2023-12-08T03:27:05.064Z,96425.13
2023-12-08T03:29:31.911Z,96428.72
2023-12-08T03:31:58.655Z,96431.22
2023-12-08T03:34:26.703Z,96424.19
2023-12-08T03:36:53.516Z,96419.13
2023-12-08T03:39:20.270Z,96417.63
2023-12-08T03:41:47.052Z,96420.84
2023-12-08T03:44:14.202Z,96425.25
2023-12-08T03:46:42.978Z,96423.06
2023-12-08T03:49:09.739Z,96428.75
2023-12-08T03:51:37.814Z,96436.47
2023-12-08T03:54:04.580Z,96438.31
2023-12-08T03:56:31.290Z,96441.78
2023-12-08T03:58:57.965Z,96436.38
2023-12-08T04:01:24.726Z,96442.72
2023-12-08T04:03:51.528Z,96446.19
2023-12-08T04:06:18.426Z,96449.41
2023-12-08T04:08:46.591Z,96446.50
2023-12-08T04:11:13.378Z,96442.38
2023-12-08T04:13:40.080Z,96442.50
2023-12-08T04:16:08.358Z,96443.53
2023-12-08T04:18:35.800Z,96447.00
2023-12-08T04:21:02.696Z,96443.19
2023-12-08T04:23:29.508Z,96453.13
2023-12-08T04:25:58.902Z,96450.69
2023-12-08T04:28:26.127Z,96449.75
2023-12-08T04:30:52.835Z,96451.50
2023-12-08T04:33:19.785Z,96455.31
2023-12-08T04:35:46.747Z,96461.66
2023-12-08T04:38:13.536Z,96458.44
2023-12-08T04:40:40.238Z,96459.69
2023-12-08T04:43:08.316Z,96462.94
2023-12-08T04:45:35.025Z,96471.38
2023-12-08T04:48:01.925Z,96460.75
2023-12-08T04:50:28.695Z,96462.81
2023-12-08T04:52:55.436Z,96465.09
2023-12-08T04:55:22.316Z,96464.19
2023-12-08T04:57:49.031Z,96449.31
2023-12-08T05:00:17.635Z,96455.19
2023-12-08T05:02:44.408Z,96450.81
2023-12-08T05:05:11.107Z,96456.69
2023-12-08T05:07:37.782Z,96451.16
2023-12-08T05:10:05.271Z,96455.75
2023-12-08T05:12:31.996Z,96446.97
2023-12-08T05:14:58.680Z,96455.06
2023-12-08T05:17:26.996Z,96453.81
2023-12-08T05:19:53.850Z,96444.56
2023-12-08T05:22:20.556Z,96448.59
2023-12-08T05:24:47.221Z,96438.09
2023-12-08T05:27:14.632Z,96439.81
2023-12-08T05:29:41.455Z,96440.38
2023-12-08T05:32:08.263Z,96443.63
2023-12-08T05:34:36.303Z,96451.44
2023-12-08T05:37:03.009Z,96450.22
2023-12-08T05:39:29.693Z,96451.25
2023-12-08T05:41:56.727Z,96448.38
2023-12-08T05:44:23.403Z,96442.25
2023-12-08T05:46:50.266Z,96452.31
2023-12-08T05:49:16.996Z,96440.28
2023-12-08T05:51:45.178Z,96453.56
2023-12-08T05:54:11.899Z,96445.59
2023-12-08T05:56:39.729Z,96452.53
2023-12-08T05:59:06.436Z,96445.03
2023-12-08T06:01:33.209Z,96449.06
2023-12-08T06:03:59.901Z,96441.09
2023-12-08T06:06:26.669Z,96453.56
2023-12-08T06:08:54.740Z,96451.72
2023-12-08T06:11:21.490Z,96447.56
2023-12-08T06:13:48.181Z,96444.09
2023-12-08T06:16:14.900Z,96449.41
2023-12-08T06:18:41.728Z,96450.00
2023-12-08T06:21:08.570Z,96451.38
2023-12-08T06:23:35.253Z,96446.88
2023-12-08T06:26:03.478Z,96452.53
2023-12-08T06:28:30.188Z,96455.38
2023-12-08T06:30:56.890Z,96453.41
2023-12-08T06:33:23.696Z,96455.03
2023-12-08T06:35:50.475Z,96451.34
2023-12-08T06:38:17.166Z,96448.69
2023-12-08T06:40:43.979Z,96437.63
2023-12-08T06:43:12.062Z,96445.59
2023-12-08T06:45:38.856Z,96448.03
2023-12-08T06:48:05.719Z,96435.78
2023-12-08T06:50:32.530Z,96442.47
2023-12-08T06:52:59.229Z,96440.28
2023-12-08T06:55:25.996Z,96436.13
2023-12-08T06:57:52.688Z,96437.47
2023-12-08T07:00:21.243Z,96432.72
2023-12-08T07:02:48.108Z,96435.16
2023-12-08T07:05:14.901Z,96438.72
2023-12-08T07:07:41.607Z,96435.28
2023-12-08T07:10:08.979Z,96438.16
2023-12-08T07:12:36.264Z,96441.16
2023-12-08T07:15:03.098Z,96435.59
2023-12-08T07:17:32.191Z,96435.59
2023-12-08T07:19:59.159Z,96443.25
2023-12-08T07:22:25.891Z,96434.81
2023-12-08T07:24:52.639Z,96432.94
2023-12-08T07:27:19.400Z,96433.88
2023-12-08T07:29:46.162Z,96424.16
2023-12-08T07:32:12.872Z,96432.94
2023-12-08T07:34:41.005Z,96435.59
2023-12-08T07:37:07.728Z,96432.81
2023-12-08T07:39:34.486Z,96434.53
2023-12-08T07:42:01.259Z,96431.66
2023-12-08T07:44:28.585Z,96435.13
2023-12-08T07:46:55.256Z,96432.47
2023-12-08T07:49:22.083Z,96431.16
2023-12-08T07:51:50.188Z,96423.53
2023-12-08T07:54:16.931Z,96428.28
2023-12-08T07:56:43.614Z,96428.06
2023-12-08T07:59:10.361Z,96430.94
2023-12-08T08:01:37.011Z,96435.00
2023-12-08T08:04:03.951Z,96439.94
2023-12-08T08:06:30.895Z,96439.13
2023-12-08T08:08:59.008Z,96440.97
2023-12-08T08:11:25.692Z,96437.03
2023-12-08T08:13:52.441Z,96435.44
2023-12-08T08:16:19.123Z,96440.84
2023-12-08T08:18:45.967Z,96431.25
2023-12-08T08:21:12.843Z,96433.91
2023-12-08T08:23:39.640Z,96434.97
2023-12-08T08:26:07.739Z,96440.28
2023-12-08T08:28:34.626Z,96441.66
2023-12-08T08:31:01.295Z,96438.28
2023-12-08T08:33:28.079Z,96439.91
2023-12-08T08:35:54.846Z,96443.72
2023-12-08T08:38:21.580Z,96432.50
2023-12-08T08:40:48.842Z,96432.94
2023-12-08T08:43:16.959Z,96433.16
2023-12-08T08:45:43.709Z,96433.63
2023-12-08T08:48:10.589Z,96438.50
2023-12-08T08:50:43.810Z,96437.91
2023-12-08T08:53:16.273Z,96439.53
2023-12-08T08:55:42.954Z,96434.22
2023-12-08T08:58:09.664Z,96433.16
2023-12-08T09:00:37.861Z,96429.47
2023-12-08T09:03:04.569Z,96422.84
2023-12-08T09:05:32.512Z,96423.19
2023-12-08T09:07:59.356Z,96432.78
2023-12-08T09:10:26.050Z,96428.03
2023-12-08T09:12:52.853Z,96426.75
2023-12-08T09:15:19.674Z,96420.06
2023-12-08T09:17:47.952Z,96423.28
2023-12-08T09:20:14.742Z,96423.84
2023-12-08T09:22:41.590Z,96428.69
2023-12-08T09:25:08.678Z,96431.38
2023-12-08T09:27:35.510Z,96431.13
2023-12-08T09:30:02.392Z,96428.78
2023-12-08T09:32:29.501Z,96436.78
2023-12-08T09:34:57.701Z,96439.19
2023-12-08T09:37:34.190Z,96444.53
2023-12-08T09:40:03.892Z,96442.53
2023-12-08T09:42:31.407Z,96447.38
2023-12-08T09:44:58.208Z,96445.53
2023-12-08T09:47:26.278Z,96447.13
2023-12-08T09:49:53.317Z,96445.03
2023-12-08T09:52:21.563Z,96439.72
2023-12-08T09:54:48.337Z,96437.47
2023-12-08T09:57:15.149Z,96437.72
2023-12-08T09:59:42.393Z,96435.88
2023-12-08T10:02:09.099Z,96433.22
2023-12-08T10:04:36.095Z,96430.31
2023-12-08T10:07:03.501Z,96432.31
2023-12-08T10:09:31.564Z,96433.97
2023-12-08T10:11:58.327Z,96417.09
2023-12-08T10:14:25.053Z,96421.03
2023-12-08T10:16:51.798Z,96412.38
2023-12-08T10:19:20.836Z,96417.88
2023-12-08T10:21:55.906Z,96422.47
2023-12-08T10:24:22.593Z,96416.69
2023-12-08T10:26:53.772Z,96407.88
2023-12-08T10:29:20.666Z,96396.91
2023-12-08T10:31:47.351Z,96382.03
2023-12-08T10:34:14.800Z,96372.72
2023-12-08T10:36:41.592Z,96387.56
2023-12-08T10:39:08.300Z,96408.09
2023-12-08T10:41:34.966Z,96410.63
2023-12-08T10:44:04.063Z,96412.63
2023-12-08T10:46:30.963Z,96411.50
2023-12-08T10:48:57.836Z,96408.03
2023-12-08T10:51:24.635Z,96405.94
2023-12-08T10:53:51.370Z,96394.88
2023-12-08T10:56:18.235Z,96396.34
2023-12-08T10:58:45.568Z,96398.88
2023-12-08T11:01:15.164Z,96396.53
2023-12-08T11:03:43.765Z,96393.03
2023-12-08T11:06:15.633Z,96389.16
2023-12-08T11:08:45.835Z,96386.59
2023-12-08T11:11:13.113Z,96380.28
2023-12-08T11:13:44.020Z,96376.25
2023-12-08T11:16:19.964Z,96377.34
2023-12-08T11:18:46.897Z,96374.56
2023-12-08T11:21:13.710Z,96371.88
2023-12-08T11:23:41.207Z,96373.00
2023-12-08T11:26:21.937Z,96368.50
2023-12-08T11:28:55.699Z,96367.03
2023-12-08T11:31:27.148Z,96365.03
2023-12-08T11:33:55.328Z,96377.03
2023-12-08T11:36:22.129Z,96375.59
2023-12-08T11:38:48.865Z,96374.88
2023-12-08T11:41:16.648Z,96378.91
2023-12-08T11:43:44.388Z,96371.41
2023-12-08T11:46:11.076Z,96367.50
2023-12-08T11:48:39.238Z,96372.13
2023-12-08T11:51:06.288Z,96368.81
2023-12-08T11:53:33.138Z,96371.97
2023-12-08T11:56:01.421Z,96371.63
2023-12-08T11:58:32.963Z,96369.69
2023-12-08T12:01:00.821Z,96379.88
2023-12-08T12:03:27.546Z,96381.50
2023-12-08T12:05:55.608Z,96385.91
2023-12-08T12:08:22.464Z,96381.47
2023-12-08T12:10:49.177Z,96383.06
2023-12-08T12:13:15.870Z,96384.22
2023-12-08T12:15:43.675Z,96376.81
2023-12-08T12:18:11.228Z,96376.97
2023-12-08T12:20:37.968Z,96378.59
2023-12-08T12:23:06.077Z,96382.84
2023-12-08T12:25:33.299Z,96382.94
2023-12-08T12:27:59.972Z,96383.91
2023-12-08T12:30:26.775Z,96385.63
2023-12-08T12:32:53.629Z,96386.00
2023-12-08T12:35:20.470Z,96380.16
2023-12-08T12:37:47.280Z,96380.22
2023-12-08T12:40:15.361Z,96389.72
2023-12-08T12:42:42.549Z,96382.47
2023-12-08T12:45:10.224Z,96385.03
2023-12-08T12:47:37.038Z,96393.47
2023-12-08T12:50:04.474Z,96389.19
2023-12-08T12:52:31.568Z,96389.75
2023-12-08T12:54:58.343Z,96395.09
2023-12-08T12:57:44.130Z,96402.66
2023-12-08T13:00:12.247Z,96404.91
2023-12-08T13:02:39.058Z,96395.72
2023-12-08T13:05:06.266Z,96386.34
2023-12-08T13:07:32.987Z,96390.69
2023-12-08T13:09:59.733Z,96407.31
2023-12-08T13:12:26.432Z,96412.78
2023-12-08T13:14:54.570Z,96408.59
2023-12-08T13:17:21.321Z,96409.09
2023-12-08T13:19:48.093Z,96418.00
2023-12-08T13:22:14.853Z,96411.88
2023-12-08T13:24:41.727Z,96406.38
2023-12-08T13:27:08.452Z,96415.16
2023-12-08T13:29:35.124Z,96422.19
2023-12-08T13:32:03.521Z,96421.91
2023-12-08T13:34:30.384Z,96425.78
2023-12-08T13:36:57.127Z,96425.75
2023-12-08T13:39:24.028Z,96423.34
2023-12-08T13:41:50.824Z,96424.94
2023-12-08T13:44:17.510Z,96423.25
2023-12-08T13:46:44.279Z,96418.91
2023-12-08T13:49:12.420Z,96420.69
2023-12-08T13:51:40.658Z,96424.16
2023-12-08T13:54:07.920Z,96428.09
2023-12-08T13:56:34.655Z,96428.50
2023-12-08T13:59:01.375Z,96429.91
2023-12-08T14:01:28.060Z,96427.69
2023-12-08T14:03:54.950Z,96432.59
2023-12-08T14:06:23.105Z,96425.78
2023-12-08T14:08:50.028Z,96429.16
2023-12-08T14:11:16.748Z,96431.59
2023-12-08T14:13:44.489Z,96429.75
2023-12-08T14:16:11.288Z,96437.88
2023-12-08T14:18:38.275Z,96435.16
2023-12-08T14:21:05.224Z,96441.16
2023-12-08T14:23:33.223Z,96441.84
2023-12-08T14:25:59.923Z,96443.53
2023-12-08T14:28:26.764Z,96451.47
2023-12-08T14:30:53.620Z,96456.00
2023-12-08T14:33:20.504Z,96459.28
2023-12-08T14:35:47.446Z,96462.28
2023-12-08T14:38:14.432Z,96467.47
2023-12-08T14:40:42.498Z,96470.38
2023-12-08T14:43:09.317Z,96468.66
2023-12-08T14:45:36.029Z,96470.44
2023-12-08T14:48:02.879Z,96468.03
2023-12-08T14:50:29.634Z,96467.22
2023-12-08T14:52:56.350Z,96470.78
2023-12-08T14:55:23.002Z,96468.69
2023-12-08T14:57:51.041Z,96480.47
2023-12-08T15:00:18.039Z,96478.03
2023-12-08T15:02:44.913Z,96473.19
2023-12-08T15:05:11.873Z,96482.28
2023-12-08T15:07:38.672Z,96488.09
2023-12-08T15:10:06.519Z,96487.03
2023-12-08T15:12:33.278Z,96489.38
2023-12-08T15:15:01.531Z,96493.09
2023-12-08T15:17:28.609Z,96497.50
2023-12-08T15:19:55.453Z,96505.00
2023-12-08T15:22:22.259Z,96518.78
2023-12-08T15:24:48.918Z,96513.44
2023-12-08T15:27:15.678Z,96509.00
2023-12-08T15:29:42.407Z,96513.78
2023-12-08T15:32:10.442Z,96507.06
2023-12-08T15:34:37.241Z,96515.47
2023-12-08T15:37:04.174Z,96517.88
2023-12-08T15:39:30.827Z,96522.34
2023-12-08T15:41:57.548Z,96519.94
2023-12-08T15:44:24.237Z,96532.81
2023-12-08T15:46:50.937Z,96532.22
2023-12-08T15:49:19.099Z,96528.75
2023-12-08T15:51:45.987Z,96534.84
2023-12-08T15:54:12.823Z,96531.63
2023-12-08T15:56:39.898Z,96532.38
2023-12-08T15:59:06.777Z,96535.56
2023-12-08T16:01:33.598Z,96537.28
2023-12-08T16:04:00.536Z,96548.03
2023-12-08T16:06:28.792Z,96553.44
2023-12-08T16:08:55.642Z,96552.84
2023-12-08T16:11:25.309Z,96551.72
2023-12-08T16:13:51.964Z,96554.53
2023-12-08T16:16:19.706Z,96552.06
2023-12-08T16:18:46.511Z,96554.06
2023-12-08T16:21:21.029Z,96557.69
2023-12-08T16:23:49.150Z,96561.66
2023-12-08T16:26:15.971Z,96560.63
2023-12-08T16:28:42.649Z,96573.44
2023-12-08T16:31:09.372Z,96576.13
2023-12-08T16:33:36.151Z,96576.19
2023-12-08T16:36:03.104Z,96581.69
2023-12-08T16:38:29.855Z,96580.16
2023-12-08T16:40:57.856Z,96582.81
2023-12-08T16:43:27.031Z,96590.81
2023-12-08T16:45:53.710Z,96591.53
2023-12-08T16:48:20.697Z,96596.00
2023-12-08T16:50:47.551Z,96596.84
2023-12-08T16:53:14.336Z,96597.09
2023-12-08T16:55:41.097Z,96607.53
2023-12-08T16:58:09.373Z,96601.47
2023-12-08T17:00:36.152Z,96604.22
2023-12-08T17:03:03.099Z,96606.19
2023-12-08T17:05:29.941Z,96617.78
2023-12-08T17:07:56.673Z,96616.50
2023-12-08T17:10:23.385Z,96618.84
2023-12-08T17:12:50.121Z,96614.16
2023-12-08T17:15:18.170Z,96613.59
2023-12-08T17:17:45.048Z,96623.94
2023-12-08T17:20:11.917Z,96616.66
2023-12-08T17:22:38.661Z,96617.38
2023-12-08T17:25:06.442Z,96622.56
2023-12-08T17:27:33.220Z,96621.75
2023-12-08T17:29:59.976Z,96620.38
2023-12-08T17:32:28.382Z,96624.91
2023-12-08T17:34:55.326Z,96630.41
2023-12-08T17:37:22.204Z,96632.06
2023-12-08T17:39:48.949Z,96633.47
2023-12-08T17:42:15.740Z,96626.59
2023-12-08T17:44:42.521Z,96625.78
2023-12-08T17:47:09.289Z,96638.66
2023-12-08T17:49:37.510Z,96640.81
2023-12-08T17:52:04.647Z,96645.03
2023-12-08T17:54:31.380Z,96642.84
2023-12-08T17:56:58.194Z,96647.03
2023-12-08T17:59:24.857Z,96647.25
2023-12-08T18:01:51.621Z,96636.09
2023-12-08T18:04:18.330Z,96635.25
2023-12-08T18:06:46.489Z,96642.84
2023-12-08T18:09:13.249Z,96639.84
2023-12-08T18:11:39.965Z,96648.50
2023-12-08T18:14:06.722Z,96653.59
2023-12-08T18:16:33.432Z,96649.06
2023-12-08T18:19:00.385Z,96651.72
2023-12-08T18:21:28.020Z,96648.75
2023-12-08T18:23:56.300Z,96640.50
2023-12-08T18:26:23.151Z,96643.16
2023-12-08T18:31:22.588Z,96652.13
2023-12-08T18:33:49.899Z,96649.06
2023-12-08T18:36:19.406Z,96650.59
2023-12-08T18:38:46.249Z,96651.63
2023-12-08T18:41:14.313Z,96650.50
2023-12-08T18:43:40.973Z,96658.81
2023-12-08T18:46:07.855Z,96666.16
2023-12-08T18:48:34.640Z,96664.00
2023-12-08T18:51:01.465Z,96670.22
2023-12-08T18:53:28.203Z,96675.06
2023-12-08T18:55:54.900Z,96679.09
2023-12-08T18:58:22.980Z,96678.53
2023-12-08T19:00:49.714Z,96677.72
2023-12-08T19:03:16.463Z,96676.09
2023-12-08T19:05:43.271Z,96679.88
2023-12-08T19:08:10.221Z,96674.53
2023-12-08T19:10:38.213Z,96686.88
2023-12-08T19:13:04.984Z,96683.97
2023-12-08T19:15:33.036Z,96686.63
2023-12-08T19:17:59.786Z,96678.06
2023-12-08T19:20:26.715Z,96682.59
2023-12-08T19:22:53.403Z,96685.50
2023-12-08T19:25:20.193Z,96692.06
2023-12-08T19:27:46.900Z,96699.06
2023-12-08T19:30:13.808Z,96692.28
2023-12-08T19:32:41.904Z,96696.97
2023-12-08T19:35:09.221Z,96700.69
2023-12-08T19:37:35.951Z,96698.59
2023-12-08T19:40:02.646Z,96694.38
2023-12-08T19:42:31.917Z,96704.25
2023-12-08T19:44:58.966Z,96702.00
2023-12-08T19:47:25.974Z,96704.81
2023-12-08T19:49:54.262Z,96694.81
2023-12-08T19:52:21.054Z,96702.91
2023-12-08T19:54:47.729Z,96700.09
2023-12-08T19:57:14.538Z,96719.63
2023-12-08T19:59:41.307Z,96720.28
2023-12-08T20:02:07.994Z,96722.63
2023-12-08T20:04:34.654Z,96726.91
2023-12-08T20:07:03.001Z,96722.06
2023-12-08T20:09:29.721Z,96730.75
2023-12-08T20:11:56.485Z,96737.09
2023-12-08T20:14:23.206Z,96730.00
2023-12-08T20:16:49.965Z,96730.38
2023-12-08T20:19:16.726Z,96727.63
2023-12-08T20:21:43.474Z,96736.75
2023-12-08T20:24:11.602Z,96733.53
2023-12-08T20:26:38.297Z,96740.72
2023-12-08T20:29:06.965Z,96743.53
2023-12-08T20:31:33.946Z,96735.06
2023-12-08T20:34:00.780Z,96740.38
2023-12-08T20:36:27.631Z,96737.16
2023-12-08T20:38:54.392Z,96736.09
2023-12-08T20:41:22.612Z,96741.28
2023-12-08T20:43:49.373Z,96752.88
2023-12-08T20:46:16.089Z,96755.63
2023-12-08T20:48:43.067Z,96763.91
2023-12-08T20:51:09.872Z,96763.44
2023-12-08T20:53:36.648Z,96754.53
2023-12-08T20:56:05.374Z,96766.91
2023-12-08T20:58:33.455Z,96766.81
2023-12-08T21:01:00.238Z,96780.84
2023-12-08T21:03:27.113Z,96782.00
2023-12-08T21:05:54.382Z,96792.81
2023-12-08T21:08:21.146Z,96788.28
2023-12-08T21:10:48.046Z,96804.63
2023-12-08T21:13:14.730Z,96798.13
2023-12-08T21:15:42.894Z,96805.56
2023-12-08T21:18:09.673Z,96812.84
2023-12-08T21:20:36.539Z,96813.19
2023-12-08T21:23:03.930Z,96812.84
2023-12-08T21:25:30.852Z,96814.47
2023-12-08T21:27:57.550Z,96810.28
2023-12-08T21:30:24.308Z,96812.38
2023-12-08T21:32:52.615Z,96811.47
2023-12-08T21:35:19.462Z,96814.72
2023-12-08T21:37:46.163Z,96813.91
2023-12-08T21:40:13.098Z,96809.47
2023-12-08T21:42:40.096Z,96810.25
2023-12-08T21:45:07.508Z,96807.59
2023-12-08T21:47:34.284Z,96804.59
2023-12-08T21:50:02.567Z,96808.72
2023-12-08T21:52:29.254Z,96809.91
2023-12-08T21:54:56.077Z,96810.22
2023-12-08T21:57:22.970Z,96816.78
2023-12-08T21:59:49.843Z,96812.25
2023-12-08T22:02:16.600Z,96813.53
2023-12-08T22:04:43.322Z,96817.59
2023-12-08T22:07:11.394Z,96821.34
2023-12-08T22:09:38.120Z,96823.44
2023-12-08T22:12:05.813Z,96825.34
2023-12-08T22:14:32.575Z,96825.53
2023-12-08T22:16:59.267Z,96817.44
2023-12-08T22:19:26.180Z,96824.25
2023-12-08T22:21:53.142Z,96824.13
2023-12-08T22:24:21.328Z,96819.88
2023-12-08T22:26:48.199Z,96829.47
2023-12-08T22:29:14.959Z,96830.88
2023-12-08T22:31:41.636Z,96824.94
2023-12-08T22:34:08.486Z,96828.88
2023-12-08T22:36:35.269Z,96823.72
2023-12-08T22:39:02.031Z,96825.84
2023-12-08T22:41:30.046Z,96829.63
2023-12-08T22:43:59.283Z,96822.09
2023-12-08T22:46:25.983Z,96835.09
2023-12-08T22:48:52.891Z,96844.44
2023-12-08T22:51:25.655Z,96844.13
2023-12-08T22:53:59.724Z,96848.66
2023-12-08T22:56:26.410Z,96837.72
2023-12-08T22:58:54.466Z,96841.59
2023-12-08T23:01:21.176Z,96847.16
2023-12-08T23:03:47.928Z,96837.06
2023-12-08T23:06:14.676Z,96838.56
2023-12-08T23:08:41.598Z,96839.38
2023-12-08T23:11:08.444Z,96848.41
2023-12-08T23:13:35.183Z,96846.41
2023-12-08T23:16:03.617Z,96848.75
2023-12-08T23:18:30.440Z,96853.41
2023-12-08T23:20:57.169Z,96860.63
2023-12-08T23:23:23.885Z,96861.88
2023-12-08T23:25:50.577Z,96862.22
2023-12-08T23:28:17.272Z,96869.28
2023-12-08T23:30:53.077Z,96872.44
2023-12-08T23:33:26.244Z,96871.56
2023-12-08T23:35:53.073Z,96874.06
2023-12-08T23:38:19.879Z,96871.28
2023-12-08T23:40:46.570Z,96874.41
2023-12-08T23:43:13.293Z,96878.22
2023-12-08T23:45:40.035Z,96876.94
2023-12-08T23:48:06.948Z,96871.72
2023-12-08T23:50:34.987Z,96874.38
2023-12-08T23:53:01.747Z,96878.91
2023-12-08T23:55:28.439Z,96879.16
2023-12-08T23:57:55.208Z,96888.31
